• Join FlightAware (Why Join?)
  • Login
  • US Flag 
07:12PM EDT


 

Airport Tracker/Info


-or-


 

Live Flight TrackerFlight Track Log ✈ AMF288 ✈ 18-Jun-2013 ✈ KPDX - KBFI

Flight Track Log - Related Links

Times and Time Zones

All times are in EDT time to prevent confusion due to time zone crossing. See the AMF288 flight status page for this flight to view local times or setup timezone preferences in your user account.

Time Position Orientation Groundspeed Altitude Reporting Facility
EDT Latitude Longitude Course Direction KTS MPH feet Rate Location/Type
08:09AM 45.6119 -122.6647 301° West 159 183 2,400  Level Seattle Center
08:10AM 45.6356 -122.7292 298° West 192 221 4,400 2,040 Climbing Seattle Center
08:11AM 45.6839 -122.7433 348° North 216 249 6,600 1,680 Climbing Seattle Center
08:12AM 45.7442 -122.7189 16° North 231 266 7,900 720 Climbing Seattle Center
08:13AM 45.8172 -122.6953 13° North 276 318 8,100 60 Climbing Seattle Center
08:14AM 45.8950 -122.6728 11° North 299 344 8,100 240 Level Seattle Center
08:15AM 45.9808 -122.6467 12° North 292 336 8,700 780 Climbing Seattle Center
08:17AM 46.0658 -122.6847 343° North 261 300 10,100 1,020 Climbing Seattle Center
08:18AM 46.1353 -122.7108 345° North 260 299 11,300 960 Climbing Seattle Center
08:19AM 46.2089 -122.7203 355° North 261 300 12,100 360 Climbing Seattle Center
08:20AM 46.3025 -122.7272 357° North 282 325 12,100  Level Seattle Center
08:21AM 46.3833 -122.7411 353° North 292 336 12,100  Level Seattle Center
08:22AM 46.4650 -122.7533 354° North 297 342 12,100  Level Seattle Center
08:23AM 46.5481 -122.7594 357° North 301 346 12,100  Level Seattle Center
08:24AM 46.6108 -122.7733 351° North 291 335 12,100  Level Seattle Center
08:25AM 46.6942 -122.7869 354° North 279 321 12,100  Level Seattle Center
08:26AM 46.7675 -122.8219 342° North 280 322 12,100 -540 Level Seattle Center
08:27AM 46.8461 -122.8706 337° Northwest 285 328 11,100 -960 Descending Seattle Center
08:28AM 46.9322 -122.8958 349° North 303 349 10,100 -660 Descending Seattle Center
08:28AM 46.9856 -122.8867 North 287 330 10,000  Descending Seattle Center
08:30AM 47.0539 -122.7883 44° Northeast 275 316 10,100  Climbing Seattle Center
08:30AM 47.0978 -122.7422 36° Northeast 276 318 10,100  Level Seattle Center
08:32AM 47.1767 -122.6672 33° Northeast 278 320 10,100  Level Seattle Center
08:33AM 47.2403 -122.6033 34° Northeast 280 322 10,100  Level Seattle Center
08:34AM 47.2958 -122.5242 44° Northeast 279 321 10,100  Level Seattle Center
08:35AM 47.3572 -122.4678 32° Northeast 278 320 10,100  Level Seattle Center
08:36AM 47.4286 -122.4778 355° North 277 319 10,100 -900 Level Seattle Center
08:37AM 47.5086 -122.4864 356° North 291 335 8,400 -1,800 Descending Seattle Center
08:38AM 47.5781 -122.5336 335° Northwest 276 318 6,500 -1,800 Descending Seattle Center
08:39AM 47.6489 -122.6031 327° Northwest 263 303 4,600 -1,500 Descending Seattle Center
08:40AM 47.6958 -122.6136 351° North 204 235 3,500 -1,140 Descending Seattle Center
08:41AM 47.7278 -122.5369 58° Northeast 195 224 2,500 -660 Descending Seattle Center
08:41AM 47.7222 -122.4708 97° East 190 219 2,300 -120 Descending Seattle Center
08:43AM 47.6858 -122.4317 144° Southeast 161 185 2,300 -60 Level Seattle Center
08:44AM 47.6417 -122.3969 152° Southeast 174 200 2,200 -540 Descending Seattle Center
08:45AM 47.6019 -122.3628 150° Southeast 167 192 1,300 -780 Descending Seattle Center
08:46AM 47.5683 -122.3353 151° Southeast 136 157 700 -540 Descending Seattle Center
08:47AM 47.5317 -122.3050 151° Southeast 131 151 100 -480 Descending Seattle Center